RJOIRJOT

Guest
Details From RJOI - IWAKUNI MCAS
To RJOT - TAKAMATSU
Flight Number -
Tags generated
Created
Modified
Stats Distance 89 nm / 164 km
Max Altitude 9,600 ft / 2,926 m
Waypoints 3
Social Downloads 0
Likes 0
Share VATSIM

Download

Looking for another format? Having issues loading an existing format? Contact us
Advertisement - Login to hide

Notes

Basic altitude profile: - Ascent Rate: 2500ft/min - Ascent Speed: 250kts - Cruise Altitude: 35000ft - Cruise Speed: 420kts - Descent Rate: 1500ft/min - Descent Speed: 250kts Options: - Use NATs: yes - Use PACOTS: yes - Use low airways: yes - Use high airways: yes

Route

RJOI KINOE RJOT

ID Type Via Altitude Latitude Longitude Leg Dist Tot Dist Heading (true) Name
O RJOI APT - 0 ft / 0 m 34.14252˚ 132.23633˚ - 0 nm - IWAKUNI MCAS
KINOE FIX - 9,600 ft / 2,926 m 34.17383˚ 132.83745˚ 29 nm 29 nm 86° / 87° -
O RJOT APT - 0 ft / 0 m 34.21405˚ 134.01577˚ 58 nm 88 nm 87° / 88° TAKAMATSU

Altitude Profile

Advertisement - Login to hide

RJOI

Details ICAO RJOI
Name IWAKUNI MCAS
Region Japan
Timezone Asia/Tokyo (UTC+9.0)
Stats Elevation 7 ft / 2 m (AMSL)
Location 34.142515° 132.236335°
Runways 2
Magnetic Variation 7.653° W

METAR

RJOI 270355Z VRB03KT 9999 BKN240 23/17 A2987 RMK SLP114 T02380167

Decode

TAF

TAF RJOI 2621/2721 VRB05KT 9999 FEW008 FEW070 QNH2986INS FM270100 12005KT 9999 FEW030 SCT240 QNH2987INS FM270300 17008KT 9999 SCT240 QNH2979INS FM271100 VRB05KT 9999 FEW025 BKN180 QNH2985INS FM271500 31005KT 9999 SCT025 BKN150 QNH2983INS T26/2706Z T17/2720Z

Decode

Departure Runways

ID Width Length Bearing (true) Bearing (mag) Surface Threshold Offset Overrun Length
02 150 ft / 46 m 8,019 ft / 2,444 m 9.19° 16.84° Concrete 0 ft / 0 m 1,000 ft / 305 m
02R 150 ft / 46 m 1,202 ft / 366 m 9.29° 16.94° Concrete 0 ft / 0 m 0 ft / 0 m
20 150 ft / 46 m 8,019 ft / 2,444 m 189.19° 196.84° Concrete 0 ft / 0 m 1,000 ft / 305 m
20L 150 ft / 46 m 1,202 ft / 366 m 189.29° 196.94° Concrete 0 ft / 0 m 0 ft / 0 m

RJOT

Details ICAO RJOT (TAK)
Name TAKAMATSU
Region Japan
Timezone Asia/Tokyo (UTC+9.0)
Stats Elevation 607 ft / 185 m (AMSL)
Location 34.214053° 134.015772°
Runways 1
Magnetic Variation 7.616° W

METAR

RJOT 270400Z VRB03KT 9999 FEW030 BKN/// 26/17 Q1011

Decode

TAF

TAF RJOT 262308Z 2700/2806 30005KT 9999 FEW030 BECMG 2702/2704 05005KT

Decode

Destination Runways

ID Width Length Bearing (true) Bearing (mag) Surface Threshold Offset Overrun Length
08 200 ft / 61 m 8,189 ft / 2,496 m 72.81° 80.43° Asphalt 0 ft / 0 m 210 ft / 64 m
26 200 ft / 61 m 8,189 ft / 2,496 m 252.83° 260.45° Asphalt 0 ft / 0 m 210 ft / 64 m

Approach Navaids

Runway Type Ident Frequency Range Bearing (true) Bearing (mag) Slope Elevation
26 Localiser IKT 109.70 MHz 18 nm / 33 km 252.81° 260.43° - 607 ft / 185 m (AMSL)
26 Glidescope IKT 109.70 MHz 10 nm / 19 km 252.82° 260.44° 3.00° 53 ft / 16 m (AMSL)
26 DME IKT 109.70 MHz 18 nm / 33 km - - - 606 ft / 185 m (AMSL)